sensor_id;sensor_type;location;lat;lon;timestamp;pressure;altitude;pressure_sealevel;temperature
15680;BMP180;15488;48.114;11.532;2023-08-31T00:00:24;94822.00;;;21.50
15680;BMP180;15488;48.114;11.532;2023-08-31T00:02:52;94824.00;;;21.60
15680;BMP180;15488;48.114;11.532;2023-08-31T00:05:21;94829.00;;;21.50
15680;BMP180;15488;48.114;11.532;2023-08-31T00:07:48;94824.00;;;21.60
15680;BMP180;15488;48.114;11.532;2023-08-31T00:10:15;94826.00;;;21.60
15680;BMP180;15488;48.114;11.532;2023-08-31T00:12:43;94826.00;;;21.60
15680;BMP180;15488;48.114;11.532;2023-08-31T00:15:11;94820.00;;;21.60
15680;BMP180;15488;48.114;11.532;2023-08-31T00:17:40;94824.00;;;21.50
15680;BMP180;15488;48.114;11.532;2023-08-31T00:20:09;94830.00;;;21.50
15680;BMP180;15488;48.114;11.532;2023-08-31T00:22:39;94827.00;;;21.50
15680;BMP180;15488;48.114;11.532;2023-08-31T00:25:07;94826.00;;;21.50
15680;BMP180;15488;48.114;11.532;2023-08-31T00:27:35;94828.00;;;21.50
15680;BMP180;15488;48.114;11.532;2023-08-31T00:30:05;94831.00;;;21.50
15680;BMP180;15488;48.114;11.532;2023-08-31T00:32:34;94824.00;;;21.50
15680;BMP180;15488;48.114;11.532;2023-08-31T00:35:03;94825.00;;;21.50
15680;BMP180;15488;48.114;11.532;2023-08-31T00:37:30;94824.00;;;21.50
15680;BMP180;15488;48.114;11.532;2023-08-31T00:39:58;94831.00;;;21.50
15680;BMP180;15488;48.114;11.532;2023-08-31T00:42:26;94832.00;;;21.50
15680;BMP180;15488;48.114;11.532;2023-08-31T00:44:55;94835.00;;;21.50
15680;BMP180;15488;48.114;11.532;2023-08-31T00:47:23;94838.00;;;21.50
15680;BMP180;15488;48.114;11.532;2023-08-31T00:49:51;94840.00;;;21.50
15680;BMP180;15488;48.114;11.532;2023-08-31T00:52:20;94828.00;;;21.50
15680;BMP180;15488;48.114;11.532;2023-08-31T00:54:50;94838.00;;;21.40
15680;BMP180;15488;48.114;11.532;2023-08-31T00:57:18;94843.00;;;21.50
15680;BMP180;15488;48.114;11.532;2023-08-31T00:59:45;94841.00;;;21.50
15680;BMP180;15488;48.114;11.532;2023-08-31T01:02:19;94842.00;;;21.50
15680;BMP180;15488;48.114;11.532;2023-08-31T01:04:54;94843.00;;;21.50
15680;BMP180;15488;48.114;11.532;2023-08-31T01:07:34;94829.00;;;21.50
15680;BMP180;15488;48.114;11.532;2023-08-31T01:10:12;94831.00;;;21.40
15680;BMP180;15488;48.114;11.532;2023-08-31T01:12:46;94820.00;;;21.40
15680;BMP180;15488;48.114;11.532;2023-08-31T01:15:18;94826.00;;;21.30
15680;BMP180;15488;48.114;11.532;2023-08-31T01:17:48;94827.00;;;21.30
15680;BMP180;15488;48.114;11.532;2023-08-31T01:20:22;94826.00;;;21.20
15680;BMP180;15488;48.114;11.532;2023-08-31T01:23:01;94829.00;;;21.20
15680;BMP180;15488;48.114;11.532;2023-08-31T01:25:32;94828.00;;;21.20
15680;BMP180;15488;48.114;11.532;2023-08-31T01:28:00;94833.00;;;21.20
15680;BMP180;15488;48.114;11.532;2023-08-31T01:30:30;94827.00;;;21.20
15680;BMP180;15488;48.114;11.532;2023-08-31T01:32:58;94834.00;;;21.10
15680;BMP180;15488;48.114;11.532;2023-08-31T01:35:26;94829.00;;;21.10
15680;BMP180;15488;48.114;11.532;2023-08-31T01:37:57;94827.00;;;21.10
15680;BMP180;15488;48.114;11.532;2023-08-31T01:40:31;94837.00;;;21.10
15680;BMP180;15488;48.114;11.532;2023-08-31T01:43:03;94831.00;;;21.10
15680;BMP180;15488;48.114;11.532;2023-08-31T01:45:33;94836.00;;;21.20
15680;BMP180;15488;48.114;11.532;2023-08-31T01:48:01;94837.00;;;21.20
15680;BMP180;15488;48.114;11.532;2023-08-31T01:50:28;94836.00;;;21.20
15680;BMP180;15488;48.114;11.532;2023-08-31T01:52:56;94840.00;;;21.20
15680;BMP180;15488;48.114;11.532;2023-08-31T01:55:23;94836.00;;;21.10
15680;BMP180;15488;48.114;11.532;2023-08-31T01:57:51;94843.00;;;21.10
15680;BMP180;15488;48.114;11.532;2023-08-31T02:00:20;94838.00;;;21.10
15680;BMP180;15488;48.114;11.532;2023-08-31T02:02:48;94843.00;;;21.00
15680;BMP180;15488;48.114;11.532;2023-08-31T02:05:15;94842.00;;;21.00
15680;BMP180;15488;48.114;11.532;2023-08-31T02:07:43;94839.00;;;21.10
15680;BMP180;15488;48.114;11.532;2023-08-31T02:10:10;94846.00;;;21.10
15680;BMP180;15488;48.114;11.532;2023-08-31T02:12:38;94846.00;;;21.10
15680;BMP180;15488;48.114;11.532;2023-08-31T02:15:05;94843.00;;;21.20
15680;BMP180;15488;48.114;11.532;2023-08-31T02:17:35;94853.00;;;21.20
15680;BMP180;15488;48.114;11.532;2023-08-31T02:20:02;94865.00;;;21.20
15680;BMP180;15488;48.114;11.532;2023-08-31T02:22:31;94875.00;;;21.20
15680;BMP180;15488;48.114;11.532;2023-08-31T02:24:59;94879.00;;;21.30
15680;BMP180;15488;48.114;11.532;2023-08-31T02:27:27;94882.00;;;21.30
15680;BMP180;15488;48.114;11.532;2023-08-31T02:29:54;94896.00;;;21.20
15680;BMP180;15488;48.114;11.532;2023-08-31T02:32:22;94908.00;;;21.10
15680;BMP180;15488;48.114;11.532;2023-08-31T02:34:50;94919.00;;;21.00
15680;BMP180;15488;48.114;11.532;2023-08-31T02:37:18;94920.00;;;20.90
15680;BMP180;15488;48.114;11.532;2023-08-31T02:39:45;94923.00;;;20.90
15680;BMP180;15488;48.114;11.532;2023-08-31T02:42:14;94921.00;;;20.80
15680;BMP180;15488;48.114;11.532;2023-08-31T02:44:42;94916.00;;;20.80
15680;BMP180;15488;48.114;11.532;2023-08-31T02:47:09;94915.00;;;20.80
15680;BMP180;15488;48.114;11.532;2023-08-31T02:49:36;94924.00;;;20.90
15680;BMP180;15488;48.114;11.532;2023-08-31T02:52:06;94922.00;;;20.90
15680;BMP180;15488;48.114;11.532;2023-08-31T02:54:33;94921.00;;;21.00
15680;BMP180;15488;48.114;11.532;2023-08-31T02:57:01;94926.00;;;21.00
15680;BMP180;15488;48.114;11.532;2023-08-31T02:59:28;94923.00;;;21.00
15680;BMP180;15488;48.114;11.532;2023-08-31T03:01:55;94912.00;;;21.00
15680;BMP180;15488;48.114;11.532;2023-08-31T03:04:23;94911.00;;;20.90
15680;BMP180;15488;48.114;11.532;2023-08-31T03:06:50;94915.00;;;20.90
15680;BMP180;15488;48.114;11.532;2023-08-31T03:09:19;94911.00;;;20.80
15680;BMP180;15488;48.114;11.532;2023-08-31T03:11:47;94912.00;;;20.80
15680;BMP180;15488;48.114;11.532;2023-08-31T03:14:14;94909.00;;;20.80
15680;BMP180;15488;48.114;11.532;2023-08-31T03:16:42;94912.00;;;20.90
15680;BMP180;15488;48.114;11.532;2023-08-31T03:19:09;94915.00;;;20.90
15680;BMP180;15488;48.114;11.532;2023-08-31T03:21:36;94919.00;;;20.90
15680;BMP180;15488;48.114;11.532;2023-08-31T03:24:04;94921.00;;;20.90
15680;BMP180;15488;48.114;11.532;2023-08-31T03:26:33;94922.00;;;20.80
15680;BMP180;15488;48.114;11.532;2023-08-31T03:29:01;94920.00;;;20.90
15680;BMP180;15488;48.114;11.532;2023-08-31T03:31:30;94921.00;;;20.90
15680;BMP180;15488;48.114;11.532;2023-08-31T03:33:58;94915.00;;;20.90
15680;BMP180;15488;48.114;11.532;2023-08-31T03:36:25;94920.00;;;20.90
15680;BMP180;15488;48.114;11.532;2023-08-31T03:38:53;94929.00;;;21.00
15680;BMP180;15488;48.114;11.532;2023-08-31T03:41:20;94937.00;;;20.90
15680;BMP180;15488;48.114;11.532;2023-08-31T03:43:49;94935.00;;;20.90
15680;BMP180;15488;48.114;11.532;2023-08-31T03:46:17;94941.00;;;20.90
15680;BMP180;15488;48.114;11.532;2023-08-31T03:48:44;94950.00;;;20.90
15680;BMP180;15488;48.114;11.532;2023-08-31T03:51:12;94952.00;;;20.80
15680;BMP180;15488;48.114;11.532;2023-08-31T03:53:39;94950.00;;;20.90
15680;BMP180;15488;48.114;11.532;2023-08-31T03:56:06;94951.00;;;20.90
15680;BMP180;15488;48.114;11.532;2023-08-31T03:58:34;94956.00;;;20.90
15680;BMP180;15488;48.114;11.532;2023-08-31T04:01:03;94957.00;;;20.90
15680;BMP180;15488;48.114;11.532;2023-08-31T04:03:31;94961.00;;;20.90
15680;BMP180;15488;48.114;11.532;2023-08-31T04:05:58;94960.00;;;20.90
15680;BMP180;15488;48.114;11.532;2023-08-31T04:08:26;94964.00;;;20.90
15680;BMP180;15488;48.114;11.532;2023-08-31T04:10:53;94966.00;;;21.00
15680;BMP180;15488;48.114;11.532;2023-08-31T04:13:21;94963.00;;;21.00
15680;BMP180;15488;48.114;11.532;2023-08-31T04:15:48;94972.00;;;21.00
15680;BMP180;15488;48.114;11.532;2023-08-31T04:18:17;94972.00;;;21.00
15680;BMP180;15488;48.114;11.532;2023-08-31T04:20:49;94970.00;;;21.00
15680;BMP180;15488;48.114;11.532;2023-08-31T04:23:18;94980.00;;;21.00
15680;BMP180;15488;48.114;11.532;2023-08-31T04:25:46;94970.00;;;21.00
15680;BMP180;15488;48.114;11.532;2023-08-31T04:28:13;94976.00;;;21.00
15680;BMP180;15488;48.114;11.532;2023-08-31T04:30:41;94978.00;;;21.00
15680;BMP180;15488;48.114;11.532;2023-08-31T04:33:09;94977.00;;;21.00
15680;BMP180;15488;48.114;11.532;2023-08-31T04:35:38;94990.00;;;21.00
15680;BMP180;15488;48.114;11.532;2023-08-31T04:38:05;94991.00;;;21.00
15680;BMP180;15488;48.114;11.532;2023-08-31T04:40:32;94995.00;;;21.00
15680;BMP180;15488;48.114;11.532;2023-08-31T04:43:00;95001.00;;;21.00
15680;BMP180;15488;48.114;11.532;2023-08-31T04:45:27;95005.00;;;21.00
15680;BMP180;15488;48.114;11.532;2023-08-31T04:47:55;95006.00;;;21.00
15680;BMP180;15488;48.114;11.532;2023-08-31T04:50:22;95003.00;;;21.00
15680;BMP180;15488;48.114;11.532;2023-08-31T04:52:51;95008.00;;;21.00
15680;BMP180;15488;48.114;11.532;2023-08-31T04:55:22;95007.00;;;21.00
15680;BMP180;15488;48.114;11.532;2023-08-31T04:57:49;95008.00;;;21.10
15680;BMP180;15488;48.114;11.532;2023-08-31T05:00:17;95017.00;;;21.10
15680;BMP180;15488;48.114;11.532;2023-08-31T05:02:45;95012.00;;;21.10
15680;BMP180;15488;48.114;11.532;2023-08-31T05:05:12;95013.00;;;21.10
15680;BMP180;15488;48.114;11.532;2023-08-31T05:07:40;95019.00;;;21.20
15680;BMP180;15488;48.114;11.532;2023-08-31T05:10:09;95023.00;;;21.10
15680;BMP180;15488;48.114;11.532;2023-08-31T05:12:37;95023.00;;;21.20
15680;BMP180;15488;48.114;11.532;2023-08-31T05:15:05;95024.00;;;21.20
15680;BMP180;15488;48.114;11.532;2023-08-31T05:17:33;95031.00;;;21.20
15680;BMP180;15488;48.114;11.532;2023-08-31T05:20:00;95024.00;;;21.20
15680;BMP180;15488;48.114;11.532;2023-08-31T05:22:29;95023.00;;;21.20
15680;BMP180;15488;48.114;11.532;2023-08-31T05:24:57;95027.00;;;21.30
15680;BMP180;15488;48.114;11.532;2023-08-31T05:27:26;95037.00;;;21.20
15680;BMP180;15488;48.114;11.532;2023-08-31T05:29:53;95029.00;;;21.20
15680;BMP180;15488;48.114;11.532;2023-08-31T05:32:20;95030.00;;;21.30
15680;BMP180;15488;48.114;11.532;2023-08-31T05:34:48;95030.00;;;21.30
15680;BMP180;15488;48.114;11.532;2023-08-31T05:37:15;95033.00;;;21.30
15680;BMP180;15488;48.114;11.532;2023-08-31T05:39:47;95039.00;;;21.30
15680;BMP180;15488;48.114;11.532;2023-08-31T05:42:14;95045.00;;;21.30
15680;BMP180;15488;48.114;11.532;2023-08-31T05:44:43;95044.00;;;21.30
15680;BMP180;15488;48.114;11.532;2023-08-31T05:47:11;95045.00;;;21.40
15680;BMP180;15488;48.114;11.532;2023-08-31T05:49:38;95056.00;;;21.30
15680;BMP180;15488;48.114;11.532;2023-08-31T05:52:06;95058.00;;;21.40
15680;BMP180;15488;48.114;11.532;2023-08-31T05:54:34;95058.00;;;21.40
15680;BMP180;15488;48.114;11.532;2023-08-31T05:57:03;95061.00;;;21.40
15680;BMP180;15488;48.114;11.532;2023-08-31T05:59:31;95061.00;;;21.40
15680;BMP180;15488;48.114;11.532;2023-08-31T06:02:00;95065.00;;;21.20
15680;BMP180;15488;48.114;11.532;2023-08-31T06:04:30;95061.00;;;21.40
15680;BMP180;15488;48.114;11.532;2023-08-31T06:06:58;95075.00;;;21.50
15680;BMP180;15488;48.114;11.532;2023-08-31T06:09:25;95078.00;;;21.50
15680;BMP180;15488;48.114;11.532;2023-08-31T06:11:53;95075.00;;;21.50
15680;BMP180;15488;48.114;11.532;2023-08-31T06:14:20;95078.00;;;21.50
15680;BMP180;15488;48.114;11.532;2023-08-31T06:16:48;95083.00;;;21.50
15680;BMP180;15488;48.114;11.532;2023-08-31T06:19:17;95081.00;;;21.50
15680;BMP180;15488;48.114;11.532;2023-08-31T06:21:44;95077.00;;;21.60
15680;BMP180;15488;48.114;11.532;2023-08-31T06:24:12;95074.00;;;21.60
15680;BMP180;15488;48.114;11.532;2023-08-31T06:26:39;95080.00;;;21.60
15680;BMP180;15488;48.114;11.532;2023-08-31T06:29:06;95080.00;;;21.60
15680;BMP180;15488;48.114;11.532;2023-08-31T06:31:36;95082.00;;;21.60
15680;BMP180;15488;48.114;11.532;2023-08-31T06:34:04;95080.00;;;21.70
15680;BMP180;15488;48.114;11.532;2023-08-31T06:36:32;95084.00;;;21.70
15680;BMP180;15488;48.114;11.532;2023-08-31T06:39:00;95093.00;;;21.70
15680;BMP180;15488;48.114;11.532;2023-08-31T06:41:27;95094.00;;;21.70
15680;BMP180;15488;48.114;11.532;2023-08-31T06:43:55;95094.00;;;21.70
15680;BMP180;15488;48.114;11.532;2023-08-31T06:46:22;95091.00;;;21.60
15680;BMP180;15488;48.114;11.532;2023-08-31T06:48:50;95087.00;;;21.80
15680;BMP180;15488;48.114;11.532;2023-08-31T06:51:18;95094.00;;;21.80
15680;BMP180;15488;48.114;11.532;2023-08-31T06:53:47;95090.00;;;21.80
15680;BMP180;15488;48.114;11.532;2023-08-31T06:56:14;95109.00;;;21.80
15680;BMP180;15488;48.114;11.532;2023-08-31T06:58:42;95099.00;;;21.80
15680;BMP180;15488;48.114;11.532;2023-08-31T07:01:09;95103.00;;;21.80
15680;BMP180;15488;48.114;11.532;2023-08-31T07:03:38;95105.00;;;21.90
15680;BMP180;15488;48.114;11.532;2023-08-31T07:06:06;95110.00;;;21.90
15680;BMP180;15488;48.114;11.532;2023-08-31T07:08:35;95112.00;;;21.90
15680;BMP180;15488;48.114;11.532;2023-08-31T07:11:04;95113.00;;;21.90
15680;BMP180;15488;48.114;11.532;2023-08-31T07:13:32;95115.00;;;21.90
15680;BMP180;15488;48.114;11.532;2023-08-31T07:15:59;95111.00;;;22.00
15680;BMP180;15488;48.114;11.532;2023-08-31T07:18:26;95114.00;;;22.00
15680;BMP180;15488;48.114;11.532;2023-08-31T07:20:54;95117.00;;;22.00
15680;BMP180;15488;48.114;11.532;2023-08-31T07:23:21;95118.00;;;22.00
15680;BMP180;15488;48.114;11.532;2023-08-31T07:25:49;95122.00;;;22.10
15680;BMP180;15488;48.114;11.532;2023-08-31T07:28:18;95125.00;;;22.10
15680;BMP180;15488;48.114;11.532;2023-08-31T07:30:45;95133.00;;;22.10
15680;BMP180;15488;48.114;11.532;2023-08-31T07:33:13;95136.00;;;22.10
15680;BMP180;15488;48.114;11.532;2023-08-31T07:35:40;95133.00;;;22.00
15680;BMP180;15488;48.114;11.532;2023-08-31T07:38:08;95143.00;;;22.10
15680;BMP180;15488;48.114;11.532;2023-08-31T07:40:35;95146.00;;;22.10
15680;BMP180;15488;48.114;11.532;2023-08-31T07:43:02;95151.00;;;22.10
15680;BMP180;15488;48.114;11.532;2023-08-31T07:45:31;95157.00;;;22.10
15680;BMP180;15488;48.114;11.532;2023-08-31T07:47:59;95147.00;;;22.20
15680;BMP180;15488;48.114;11.532;2023-08-31T07:50:26;95144.00;;;22.20
15680;BMP180;15488;48.114;11.532;2023-08-31T07:52:54;95141.00;;;22.30
15680;BMP180;15488;48.114;11.532;2023-08-31T07:55:21;95140.00;;;22.30
15680;BMP180;15488;48.114;11.532;2023-08-31T07:57:48;95143.00;;;22.40
15680;BMP180;15488;48.114;11.532;2023-08-31T08:00:16;95151.00;;;22.40
15680;BMP180;15488;48.114;11.532;2023-08-31T08:02:46;95144.00;;;22.30
15680;BMP180;15488;48.114;11.532;2023-08-31T08:05:13;95142.00;;;22.40
15680;BMP180;15488;48.114;11.532;2023-08-31T08:07:41;95143.00;;;22.40
15680;BMP180;15488;48.114;11.532;2023-08-31T08:10:11;95143.00;;;22.50
15680;BMP180;15488;48.114;11.532;2023-08-31T08:12:45;95147.00;;;22.60
15680;BMP180;15488;48.114;11.532;2023-08-31T08:15:13;95145.00;;;22.60
15680;BMP180;15488;48.114;11.532;2023-08-31T08:17:40;95153.00;;;22.60
15680;BMP180;15488;48.114;11.532;2023-08-31T08:20:10;95157.00;;;22.50
15680;BMP180;15488;48.114;11.532;2023-08-31T08:22:38;95161.00;;;22.60
15680;BMP180;15488;48.114;11.532;2023-08-31T08:25:06;95170.00;;;22.50
15680;BMP180;15488;48.114;11.532;2023-08-31T08:27:34;95178.00;;;22.60
15680;BMP180;15488;48.114;11.532;2023-08-31T08:30:03;95177.00;;;22.50
15680;BMP180;15488;48.114;11.532;2023-08-31T08:32:32;95188.00;;;22.50
15680;BMP180;15488;48.114;11.532;2023-08-31T08:35:00;95189.00;;;22.50
15680;BMP180;15488;48.114;11.532;2023-08-31T08:37:29;95184.00;;;22.50
15680;BMP180;15488;48.114;11.532;2023-08-31T08:39:58;95180.00;;;22.60
15680;BMP180;15488;48.114;11.532;2023-08-31T08:42:26;95190.00;;;22.60
15680;BMP180;15488;48.114;11.532;2023-08-31T08:44:56;95191.00;;;22.60
15680;BMP180;15488;48.114;11.532;2023-08-31T08:47:25;95193.00;;;22.60
15680;BMP180;15488;48.114;11.532;2023-08-31T08:49:53;95194.00;;;22.60
15680;BMP180;15488;48.114;11.532;2023-08-31T08:52:22;95183.00;;;22.60
15680;BMP180;15488;48.114;11.532;2023-08-31T08:54:52;95179.00;;;22.70
15680;BMP180;15488;48.114;11.532;2023-08-31T08:57:20;95177.00;;;22.70
15680;BMP180;15488;48.114;11.532;2023-08-31T08:59:47;95186.00;;;22.80
15680;BMP180;15488;48.114;11.532;2023-08-31T09:02:14;95185.00;;;22.90
15680;BMP180;15488;48.114;11.532;2023-08-31T09:04:42;95187.00;;;22.80
15680;BMP180;15488;48.114;11.532;2023-08-31T09:07:09;95192.00;;;22.80
15680;BMP180;15488;48.114;11.532;2023-08-31T09:09:50;95206.00;;;22.90
15680;BMP180;15488;48.114;11.532;2023-08-31T09:12:18;95211.00;;;22.90
15680;BMP180;15488;48.114;11.532;2023-08-31T09:14:57;95213.00;;;22.80
15680;BMP180;15488;48.114;11.532;2023-08-31T09:17:25;95213.00;;;22.90
15680;BMP180;15488;48.114;11.532;2023-08-31T09:19:59;95213.00;;;22.90
15680;BMP180;15488;48.114;11.532;2023-08-31T09:22:29;95215.00;;;22.90
15680;BMP180;15488;48.114;11.532;2023-08-31T09:24:58;95209.00;;;22.80
15680;BMP180;15488;48.114;11.532;2023-08-31T09:27:25;95211.00;;;22.90
15680;BMP180;15488;48.114;11.532;2023-08-31T09:29:55;95218.00;;;22.90
15680;BMP180;15488;48.114;11.532;2023-08-31T09:32:22;95217.00;;;22.90
15680;BMP180;15488;48.114;11.532;2023-08-31T09:34:50;95204.00;;;23.00
15680;BMP180;15488;48.114;11.532;2023-08-31T09:37:17;95208.00;;;23.00
15680;BMP180;15488;48.114;11.532;2023-08-31T09:39:45;95208.00;;;23.00
15680;BMP180;15488;48.114;11.532;2023-08-31T09:42:13;95210.00;;;23.00
15680;BMP180;15488;48.114;11.532;2023-08-31T09:44:43;95216.00;;;23.00
15680;BMP180;15488;48.114;11.532;2023-08-31T09:47:13;95217.00;;;23.00
15680;BMP180;15488;48.114;11.532;2023-08-31T09:49:42;95203.00;;;23.00
15680;BMP180;15488;48.114;11.532;2023-08-31T09:52:12;95208.00;;;23.10
15680;BMP180;15488;48.114;11.532;2023-08-31T09:54:40;95210.00;;;23.20
15680;BMP180;15488;48.114;11.532;2023-08-31T09:57:09;95208.00;;;23.30
15680;BMP180;15488;48.114;11.532;2023-08-31T09:59:40;95204.00;;;23.30
15680;BMP180;15488;48.114;11.532;2023-08-31T10:02:08;95211.00;;;23.30
15680;BMP180;15488;48.114;11.532;2023-08-31T10:04:37;95207.00;;;23.30
15680;BMP180;15488;48.114;11.532;2023-08-31T10:07:05;95207.00;;;23.40
15680;BMP180;15488;48.114;11.532;2023-08-31T10:09:33;95205.00;;;23.40
15680;BMP180;15488;48.114;11.532;2023-08-31T10:12:04;95205.00;;;23.40
15680;BMP180;15488;48.114;11.532;2023-08-31T10:14:32;95203.00;;;23.40
15680;BMP180;15488;48.114;11.532;2023-08-31T10:17:01;95198.00;;;23.30
15680;BMP180;15488;48.114;11.532;2023-08-31T10:19:30;95194.00;;;23.30
15680;BMP180;15488;48.114;11.532;2023-08-31T10:21:57;95203.00;;;23.30
15680;BMP180;15488;48.114;11.532;2023-08-31T10:24:56;95198.00;;;23.30
15680;BMP180;15488;48.114;11.532;2023-08-31T10:27:23;95201.00;;;23.40
15680;BMP180;15488;48.114;11.532;2023-08-31T10:29:51;95197.00;;;23.40
15680;BMP180;15488;48.114;11.532;2023-08-31T10:32:20;95203.00;;;23.50
15680;BMP180;15488;48.114;11.532;2023-08-31T10:35:03;95207.00;;;23.50
15680;BMP180;15488;48.114;11.532;2023-08-31T10:37:31;95213.00;;;23.40
15680;BMP180;15488;48.114;11.532;2023-08-31T10:40:07;95206.00;;;23.40
15680;BMP180;15488;48.114;11.532;2023-08-31T10:42:44;95204.00;;;23.40
15680;BMP180;15488;48.114;11.532;2023-08-31T10:45:13;95202.00;;;23.30
15680;BMP180;15488;48.114;11.532;2023-08-31T10:47:42;95198.00;;;23.30
15680;BMP180;15488;48.114;11.532;2023-08-31T10:50:20;95207.00;;;23.30
15680;BMP180;15488;48.114;11.532;2023-08-31T10:52:48;95201.00;;;23.30
15680;BMP180;15488;48.114;11.532;2023-08-31T10:55:16;95204.00;;;23.30
15680;BMP180;15488;48.114;11.532;2023-08-31T10:57:43;95211.00;;;23.30
15680;BMP180;15488;48.114;11.532;2023-08-31T11:00:12;95208.00;;;23.30
15680;BMP180;15488;48.114;11.532;2023-08-31T11:02:44;95214.00;;;23.20
15680;BMP180;15488;48.114;11.532;2023-08-31T11:05:14;95206.00;;;23.10
15680;BMP180;15488;48.114;11.532;2023-08-31T11:07:43;95206.00;;;23.10
15680;BMP180;15488;48.114;11.532;2023-08-31T11:10:13;95202.00;;;23.10
15680;BMP180;15488;48.114;11.532;2023-08-31T11:12:42;95198.00;;;23.10
15680;BMP180;15488;48.114;11.532;2023-08-31T11:15:12;95206.00;;;23.10
15680;BMP180;15488;48.114;11.532;2023-08-31T11:17:41;95198.00;;;23.10
15680;BMP180;15488;48.114;11.532;2023-08-31T11:20:14;95208.00;;;23.10
15680;BMP180;15488;48.114;11.532;2023-08-31T11:22:43;95207.00;;;23.20
15680;BMP180;15488;48.114;11.532;2023-08-31T11:25:12;95221.00;;;23.20
15680;BMP180;15488;48.114;11.532;2023-08-31T11:27:40;95224.00;;;23.20
15680;BMP180;15488;48.114;11.532;2023-08-31T11:30:15;95219.00;;;23.30
15680;BMP180;15488;48.114;11.532;2023-08-31T11:32:46;95221.00;;;23.30
15680;BMP180;15488;48.114;11.532;2023-08-31T11:35:16;95213.00;;;23.40
15680;BMP180;15488;48.114;11.532;2023-08-31T11:37:45;95232.00;;;23.50
15680;BMP180;15488;48.114;11.532;2023-08-31T11:40:13;95232.00;;;23.50
15680;BMP180;15488;48.114;11.532;2023-08-31T11:42:41;95225.00;;;23.60
15680;BMP180;15488;48.114;11.532;2023-08-31T11:45:10;95226.00;;;23.70
15680;BMP180;15488;48.114;11.532;2023-08-31T11:47:38;95231.00;;;23.70
15680;BMP180;15488;48.114;11.532;2023-08-31T11:50:07;95228.00;;;23.80
15680;BMP180;15488;48.114;11.532;2023-08-31T11:52:37;95234.00;;;23.90
15680;BMP180;15488;48.114;11.532;2023-08-31T11:55:10;95229.00;;;23.90
15680;BMP180;15488;48.114;11.532;2023-08-31T11:57:38;95230.00;;;24.00
15680;BMP180;15488;48.114;11.532;2023-08-31T12:00:07;95229.00;;;24.00
15680;BMP180;15488;48.114;11.532;2023-08-31T12:02:37;95227.00;;;24.00
15680;BMP180;15488;48.114;11.532;2023-08-31T12:05:05;95236.00;;;24.10
15680;BMP180;15488;48.114;11.532;2023-08-31T12:07:41;95238.00;;;24.10
15680;BMP180;15488;48.114;11.532;2023-08-31T12:10:09;95237.00;;;24.10
15680;BMP180;15488;48.114;11.532;2023-08-31T12:12:36;95231.00;;;24.20
15680;BMP180;15488;48.114;11.532;2023-08-31T12:15:05;95246.00;;;24.30
15680;BMP180;15488;48.114;11.532;2023-08-31T12:17:37;95242.00;;;24.30
15680;BMP180;15488;48.114;11.532;2023-08-31T12:20:06;95242.00;;;24.30
15680;BMP180;15488;48.114;11.532;2023-08-31T12:22:34;95241.00;;;24.40
15680;BMP180;15488;48.114;11.532;2023-08-31T12:25:04;95246.00;;;24.40
15680;BMP180;15488;48.114;11.532;2023-08-31T12:27:31;95246.00;;;24.50
15680;BMP180;15488;48.114;11.532;2023-08-31T12:29:59;95245.00;;;24.60
15680;BMP180;15488;48.114;11.532;2023-08-31T12:32:26;95244.00;;;24.70
15680;BMP180;15488;48.114;11.532;2023-08-31T12:34:53;95240.00;;;24.80
15680;BMP180;15488;48.114;11.532;2023-08-31T12:37:21;95231.00;;;24.90
15680;BMP180;15488;48.114;11.532;2023-08-31T12:39:48;95239.00;;;25.10
15680;BMP180;15488;48.114;11.532;2023-08-31T12:42:18;95235.00;;;25.20
15680;BMP180;15488;48.114;11.532;2023-08-31T12:44:45;95244.00;;;25.40
15680;BMP180;15488;48.114;11.532;2023-08-31T12:47:13;95238.00;;;25.50
15680;BMP180;15488;48.114;11.532;2023-08-31T12:49:40;95234.00;;;25.50
15680;BMP180;15488;48.114;11.532;2023-08-31T12:52:08;95233.00;;;25.50
15680;BMP180;15488;48.114;11.532;2023-08-31T12:54:35;95234.00;;;25.60
15680;BMP180;15488;48.114;11.532;2023-08-31T12:57:03;95246.00;;;25.60
15680;BMP180;15488;48.114;11.532;2023-08-31T12:59:32;95239.00;;;25.60
15680;BMP180;15488;48.114;11.532;2023-08-31T13:02:00;95239.00;;;25.80
15680;BMP180;15488;48.114;11.532;2023-08-31T13:04:29;95237.00;;;25.90
15680;BMP180;15488;48.114;11.532;2023-08-31T13:06:57;95239.00;;;25.90
15680;BMP180;15488;48.114;11.532;2023-08-31T13:09:24;95242.00;;;25.90
15680;BMP180;15488;48.114;11.532;2023-08-31T13:11:52;95240.00;;;25.90
15680;BMP180;15488;48.114;11.532;2023-08-31T13:14:19;95242.00;;;25.90
15680;BMP180;15488;48.114;11.532;2023-08-31T13:16:48;95234.00;;;26.10
15680;BMP180;15488;48.114;11.532;2023-08-31T13:19:16;95238.00;;;26.20
15680;BMP180;15488;48.114;11.532;2023-08-31T13:21:43;95249.00;;;26.30
15680;BMP180;15488;48.114;11.532;2023-08-31T13:24:11;95246.00;;;26.30
15680;BMP180;15488;48.114;11.532;2023-08-31T13:26:39;95245.00;;;26.50
15680;BMP180;15488;48.114;11.532;2023-08-31T13:29:09;95247.00;;;26.70
15680;BMP180;15488;48.114;11.532;2023-08-31T13:31:37;95254.00;;;27.00
15680;BMP180;15488;48.114;11.532;2023-08-31T13:34:06;95240.00;;;27.20
15680;BMP180;15488;48.114;11.532;2023-08-31T13:36:35;95245.00;;;27.50
15680;BMP180;15488;48.114;11.532;2023-08-31T13:39:02;95243.00;;;27.70
15680;BMP180;15488;48.114;11.532;2023-08-31T13:41:30;95246.00;;;28.30
15680;BMP180;15488;48.114;11.532;2023-08-31T13:43:57;95246.00;;;29.00
15680;BMP180;15488;48.114;11.532;2023-08-31T13:46:25;95255.00;;;29.40
15680;BMP180;15488;48.114;11.532;2023-08-31T13:48:52;95246.00;;;30.00
15680;BMP180;15488;48.114;11.532;2023-08-31T13:51:21;95238.00;;;30.60
15680;BMP180;15488;48.114;11.532;2023-08-31T13:53:49;95252.00;;;31.20
15680;BMP180;15488;48.114;11.532;2023-08-31T13:56:16;95247.00;;;31.40
15680;BMP180;15488;48.114;11.532;2023-08-31T13:58:43;95239.00;;;31.90
15680;BMP180;15488;48.114;11.532;2023-08-31T14:01:11;95237.00;;;32.50
15680;BMP180;15488;48.114;11.532;2023-08-31T14:03:39;95223.00;;;33.10